Time;durP1;ratioP1;P1;durP2;ratioP2;P2;SDS_P1;SDS_P2;PMS_P1;PMS_P2;Temp;Humidity;BMP_temperature;BMP_pressure;BME280_temperature;BME280_humidity;BME280_pressure;Samples;Min_cycle;Max_cycle;Signal;HPM_P1;HPM_P2
2023/05/20 00:00:52;;;;;;;1.90;1.33;;;15.90;45.00;;;;;;4999816;28;20068;-56
2023/05/20 00:03:20;;;;;;;2.88;1.58;;;15.90;45.10;;;;;;5000642;28;20060;-57
2023/05/20 00:05:47;;;;;;;1.65;1.40;;;15.80;45.00;;;;;;5004871;28;20077;-57
2023/05/20 00:08:14;;;;;;;2.90;1.25;;;15.80;45.10;;;;;;5005549;28;20052;-56
2023/05/20 00:10:41;;;;;;;2.28;1.40;;;15.80;45.00;;;;;;5004862;28;20581;-57
2023/05/20 00:13:09;;;;;;;2.15;1.35;;;15.70;45.50;;;;;;5004759;28;20053;-57
2023/05/20 00:15:36;;;;;;;2.60;1.70;;;15.70;45.00;;;;;;5003982;28;20158;-57
2023/05/20 00:18:05;;;;;;;3.55;1.63;;;15.70;45.00;;;;;;5004598;28;20057;-57
2023/05/20 00:20:32;;;;;;;2.35;1.13;;;15.70;45.20;;;;;;5004813;28;20076;-56
2023/05/20 00:23:00;;;;;;;3.83;1.80;;;15.70;45.20;;;;;;5003608;28;20410;-57
2023/05/20 00:25:27;;;;;;;3.83;1.30;;;15.60;45.20;;;;;;5003857;28;20682;-56
2023/05/20 00:27:54;;;;;;;3.45;1.65;;;15.60;45.30;;;;;;5004324;28;20569;-57
2023/05/20 00:30:21;;;;;;;1.40;1.30;;;15.60;45.30;;;;;;5002645;28;20064;-57
2023/05/20 00:32:49;;;;;;;2.58;1.50;;;15.60;45.30;;;;;;5003253;28;20061;-56
2023/05/20 00:35:17;;;;;;;4.57;1.70;;;15.50;45.30;;;;;;5003634;28;20058;-56
2023/05/20 00:37:44;;;;;;;3.35;1.48;;;15.50;45.50;;;;;;5004382;28;20411;-57
2023/05/20 00:40:12;;;;;;;1.50;0.98;;;15.50;45.50;;;;;;5004500;28;20054;-57
2023/05/20 00:42:39;;;;;;;2.13;1.40;;;15.50;45.50;;;;;;5004401;28;20373;-55
2023/05/20 00:45:08;;;;;;;1.80;1.38;;;15.40;45.60;;;;;;5005144;28;20049;-57
2023/05/20 00:47:36;;;;;;;3.10;1.30;;;15.40;45.70;;;;;;5003483;28;20054;-57
2023/05/20 00:50:04;;;;;;;4.85;1.60;;;15.40;45.70;;;;;;5002634;28;20081;-57
2023/05/20 00:52:33;;;;;;;2.28;1.30;;;15.40;45.70;;;;;;5004041;28;20489;-56
2023/05/20 00:55:01;;;;;;;3.10;1.75;;;15.30;45.70;;;;;;5004104;28;20534;-57
2023/05/20 00:57:28;;;;;;;3.78;1.80;;;15.30;45.60;;;;;;5003526;28;20057;-56
2023/05/20 00:59:55;;;;;;;3.25;1.40;;;15.30;45.70;;;;;;5003422;28;20061;-56
2023/05/20 01:02:23;;;;;;;2.10;1.45;;;15.30;45.70;;;;;;5004567;28;20065;-56
2023/05/20 01:04:55;;;;;;;3.15;1.60;;;15.30;45.70;;;;;;5029074;23;20061;-92
2023/05/20 01:07:24;;;;;;;3.55;1.52;;;15.20;45.80;;;;;;5029169;28;20053;-92
2023/05/20 01:09:54;;;;;;;3.25;1.60;;;15.30;45.80;;;;;;5029168;28;20063;-92
2023/05/20 01:12:27;;;;;;;2.53;1.50;;;15.20;45.80;;;;;;5023773;28;20056;-92
2023/05/20 01:14:59;;;;;;;2.63;1.60;;;15.20;45.90;;;;;;5029992;28;20057;-92
2023/05/20 01:17:31;;;;;;;2.78;1.45;;;15.20;46.00;;;;;;5029533;28;20053;-92
2023/05/20 01:20:00;;;;;;;2.25;1.65;;;15.20;45.90;;;;;;5030093;28;20064;-91
2023/05/20 01:22:30;;;;;;;2.65;1.45;;;15.20;46.00;;;;;;5030847;28;20083;-92
2023/05/20 01:24:58;;;;;;;2.13;1.38;;;15.10;46.00;;;;;;5025630;28;20147;-93
2023/05/20 01:27:25;;;;;;;3.67;1.88;;;15.10;46.00;;;;;;5019462;28;20148;-92
2023/05/20 01:29:53;;;;;;;2.05;1.42;;;15.10;46.00;;;;;;5025004;28;20060;-92
2023/05/20 01:32:23;;;;;;;2.60;1.50;;;15.10;46.00;;;;;;5025887;28;20440;-93
2023/05/20 01:34:53;;;;;;;2.88;1.42;;;15.10;46.10;;;;;;5030407;28;20060;-92
2023/05/20 01:37:24;;;;;;;2.90;1.73;;;15.00;46.00;;;;;;5025662;28;20397;-91
2023/05/20 01:39:55;;;;;;;2.45;1.40;;;15.10;46.10;;;;;;5027480;28;20073;-91
2023/05/20 01:42:24;;;;;;;1.63;1.25;;;15.00;46.20;;;;;;5022635;28;21086;-92
2023/05/20 01:44:52;;;;;;;3.85;1.38;;;15.00;46.10;;;;;;5030000;28;20507;-94
2023/05/20 01:47:20;;;;;;;2.65;1.58;;;15.00;46.10;;;;;;5027963;28;20070;-91
2023/05/20 01:49:52;;;;;;;2.03;1.20;;;15.00;46.10;;;;;;5030942;28;20566;-92
2023/05/20 01:52:20;;;;;;;2.45;1.52;;;15.00;46.20;;;;;;5032706;28;20049;-91
2023/05/20 01:54:50;;;;;;;2.53;1.70;;;14.90;46.20;;;;;;5031512;28;20517;-92
2023/05/20 01:57:21;;;;;;;2.78;1.45;;;14.90;46.30;;;;;;5019336;28;20060;-93
2023/05/20 01:59:49;;;;;;;2.67;1.58;;;14.90;46.50;;;;;;5026325;28;20061;-93
2023/05/20 02:02:17;;;;;;;2.25;1.35;;;14.90;46.60;;;;;;5021281;28;21304;-93
2023/05/20 02:04:47;;;;;;;6.05;1.67;;;14.90;46.60;;;;;;5032942;28;20643;-92
2023/05/20 02:07:14;;;;;;;2.35;1.60;;;14.90;46.70;;;;;;5030895;28;20422;-91
2023/05/20 02:09:42;;;;;;;2.80;1.50;;;14.80;46.60;;;;;;5029034;28;20060;-91
2023/05/20 02:12:15;;;;;;;3.47;1.88;;;14.80;46.60;;;;;;5021161;28;20148;-92
2023/05/20 02:14:44;;;;;;;2.28;1.50;;;14.80;46.60;;;;;;5037965;23;20505;-92
2023/05/20 02:17:16;;;;;;;4.07;1.45;;;14.80;46.60;;;;;;5025340;28;20049;-90
2023/05/20 02:19:45;;;;;;;4.28;1.42;;;14.80;46.70;;;;;;5029382;28;20056;-91
2023/05/20 02:22:13;;;;;;;2.15;1.40;;;14.70;46.60;;;;;;5024674;28;20052;-91
2023/05/20 02:24:42;;;;;;;3.97;1.55;;;14.70;46.60;;;;;;5024897;28;20073;-91
2023/05/20 02:27:11;;;;;;;2.30;1.70;;;14.70;46.70;;;;;;5031864;28;20059;-92
2023/05/20 02:29:39;;;;;;;1.60;1.23;;;14.70;46.70;;;;;;5033360;28;20053;-90
2023/05/20 02:32:08;;;;;;;3.95;1.73;;;14.70;46.80;;;;;;5031617;28;20064;-91
2023/05/20 02:34:36;;;;;;;2.72;1.55;;;14.70;46.80;;;;;;5030661;28;20048;-90
2023/05/20 02:37:03;;;;;;;2.60;1.50;;;14.60;46.80;;;;;;5034466;28;20052;-89
2023/05/20 02:39:31;;;;;;;3.25;1.77;;;14.60;46.90;;;;;;5031717;28;20053;-91
2023/05/20 02:41:59;;;;;;;1.70;1.20;;;14.60;47.00;;;;;;5023922;28;20045;-90
2023/05/20 02:44:26;;;;;;;2.38;1.60;;;14.60;47.00;;;;;;5024091;28;20045;-93
2023/05/20 02:46:55;;;;;;;2.90;1.70;;;14.50;47.00;;;;;;5026112;28;20462;-92
2023/05/20 02:49:24;;;;;;;2.35;1.50;;;14.50;47.10;;;;;;5027144;28;20049;-91
2023/05/20 02:51:51;;;;;;;2.53;1.70;;;14.50;47.30;;;;;;5058383;22;20056;-90
2023/05/20 02:54:20;;;;;;;2.65;1.77;;;14.50;47.30;;;;;;5029994;28;20068;-90
2023/05/20 02:56:48;;;;;;;4.53;1.83;;;14.40;47.30;;;;;;5025748;28;20060;-91
2023/05/20 02:59:15;;;;;;;2.70;1.55;;;14.40;47.80;;;;;;5026005;28;20060;-89
2023/05/20 03:01:43;;;;;;;2.00;1.63;;;14.40;47.30;;;;;;5029617;28;20061;-89
2023/05/20 03:04:11;;;;;;;1.58;1.27;;;14.40;47.40;;;;;;5024342;28;20057;-90
2023/05/20 03:06:43;;;;;;;2.80;1.70;;;14.40;47.50;;;;;;5002675;28;20516;-89
2023/05/20 03:09:10;;;;;;;3.00;1.60;;;14.40;47.60;;;;;;5034849;28;20052;-90
2023/05/20 03:11:38;;;;;;;3.15;1.40;;;14.30;47.60;;;;;;5043298;28;20059;-89
2023/05/20 03:14:05;;;;;;;3.13;1.63;;;14.30;47.60;;;;;;5018609;28;20420;-91
2023/05/20 03:16:34;;;;;;;4.82;1.80;;;14.30;47.60;;;;;;5018254;28;20058;-91
2023/05/20 03:19:01;;;;;;;2.97;1.40;;;14.30;47.80;;;;;;5029219;28;20052;-92
2023/05/20 03:21:29;;;;;;;2.67;1.70;;;14.30;47.80;;;;;;5028959;28;20059;-92
2023/05/20 03:23:57;;;;;;;2.75;1.40;;;14.30;47.90;;;;;;5031444;28;20405;-91
2023/05/20 03:26:25;;;;;;;2.42;1.52;;;14.20;47.90;;;;;;5031392;28;20717;-91
2023/05/20 03:28:53;;;;;;;3.47;1.70;;;14.20;47.80;;;;;;5022882;28;20051;-93
2023/05/20 03:31:20;;;;;;;3.05;1.90;;;14.20;47.90;;;;;;5022980;28;20462;-92
2023/05/20 03:33:50;;;;;;;2.42;1.58;;;14.20;47.90;;;;;;5015391;28;20584;-91
2023/05/20 03:36:20;;;;;;;2.53;1.70;;;14.20;48.00;;;;;;5023274;28;20173;-94
2023/05/20 03:38:48;;;;;;;3.15;1.60;;;14.10;48.00;;;;;;5032576;28;20041;-91
2023/05/20 03:41:18;;;;;;;4.05;1.88;;;14.10;48.00;;;;;;5024206;28;20068;-93
2023/05/20 03:43:45;;;;;;;3.83;2.10;;;14.10;48.10;;;;;;5028475;28;20132;-90
2023/05/20 03:46:13;;;;;;;2.67;1.60;;;14.10;48.20;;;;;;5025194;28;20053;-91
2023/05/20 03:48:41;;;;;;;2.00;1.50;;;14.10;48.20;;;;;;5032936;28;20661;-88
2023/05/20 03:51:08;;;;;;;3.28;1.30;;;14.10;48.30;;;;;;5033024;28;20053;-89
2023/05/20 03:53:36;;;;;;;4.30;1.92;;;14.10;48.60;;;;;;5037999;28;20049;-90
2023/05/20 03:56:04;;;;;;;3.30;1.83;;;14.10;48.70;;;;;;5026769;28;20060;-89
2023/05/20 03:58:34;;;;;;;3.65;1.65;;;14.10;48.70;;;;;;5041117;28;20389;-89
2023/05/20 04:01:01;;;;;;;2.42;1.70;;;14.00;48.70;;;;;;5033014;28;20400;-90
2023/05/20 04:03:29;;;;;;;2.30;1.55;;;14.00;48.80;;;;;;5036445;28;20515;-90
2023/05/20 04:05:56;;;;;;;3.67;2.28;;;14.00;48.90;;;;;;5028125;28;20068;-88
2023/05/20 04:08:25;;;;;;;2.92;2.05;;;14.00;49.00;;;;;;5036394;28;20724;-88
2023/05/20 04:10:56;;;;;;;4.18;2.10;;;14.00;49.10;;;;;;5036751;28;20048;-89
2023/05/20 04:13:25;;;;;;;4.72;1.77;;;14.00;49.20;;;;;;5038336;28;20064;-87
2023/05/20 04:15:54;;;;;;;2.58;1.95;;;14.00;49.20;;;;;;5036926;28;20057;-90
2023/05/20 04:18:22;;;;;;;2.42;1.70;;;13.90;49.60;;;;;;5027259;28;20053;-90
2023/05/20 04:20:50;;;;;;;2.17;1.70;;;13.90;49.20;;;;;;5037509;28;20056;-91
2023/05/20 04:23:17;;;;;;;3.55;1.73;;;13.90;49.30;;;;;;5038114;28;20060;-87
2023/05/20 04:25:45;;;;;;;3.90;2.22;;;14.00;49.40;;;;;;5034381;28;20481;-91
2023/05/20 04:28:15;;;;;;;31.75;12.70;;;14.00;49.50;;;;;;5031515;28;20056;-90
2023/05/20 04:30:43;;;;;;;14.23;6.95;;;14.00;49.70;;;;;;5009350;28;20456;-89
2023/05/20 04:33:13;;;;;;;7.53;3.70;;;14.00;49.90;;;;;;5029386;28;20091;-90
2023/05/20 04:35:41;;;;;;;5.45;2.47;;;14.10;50.30;;;;;;5026862;28;20056;-91
2023/05/20 04:38:09;;;;;;;3.63;2.10;;;14.10;50.30;;;;;;5029630;28;20068;-91
2023/05/20 04:40:36;;;;;;;5.22;2.47;;;14.20;50.40;;;;;;5029382;28;20049;-91
2023/05/20 04:43:04;;;;;;;2.22;1.65;;;14.20;50.50;;;;;;5036034;28;20056;-90
2023/05/20 04:45:32;;;;;;;3.53;1.85;;;14.20;50.60;;;;;;5031910;28;20053;-91
2023/05/20 04:47:59;;;;;;;3.00;2.20;;;14.30;50.90;;;;;;5034277;28;20056;-89
2023/05/20 04:50:28;;;;;;;5.38;2.03;;;14.40;50.90;;;;;;5036937;28;20045;-90
2023/05/20 04:52:56;;;;;;;2.65;1.80;;;14.40;51.00;;;;;;5037555;28;20067;-90
2023/05/20 04:55:26;;;;;;;5.07;2.30;;;14.40;50.80;;;;;;5032770;28;20053;-90
2023/05/20 04:57:54;;;;;;;3.95;2.00;;;14.40;50.90;;;;;;5030457;28;20045;-90
2023/05/20 05:00:22;;;;;;;3.97;1.88;;;14.50;50.80;;;;;;5031462;28;20053;-89
2023/05/20 05:02:50;;;;;;;2.75;2.08;;;14.50;51.50;;;;;;5032770;28;20477;-91
2023/05/20 05:05:18;;;;;;;3.42;2.20;;;14.50;51.20;;;;;;5031457;28;20048;-89
2023/05/20 05:07:47;;;;;;;3.45;1.95;;;14.50;51.10;;;;;;5034536;28;20048;-91
2023/05/20 05:10:14;;;;;;;4.25;2.33;;;14.50;51.10;;;;;;5032634;28;20774;-88
2023/05/20 05:12:42;;;;;;;5.72;2.35;;;14.60;51.10;;;;;;5042429;28;20060;-90
2023/05/20 05:15:10;;;;;;;4.32;2.42;;;14.60;51.20;;;;;;5032000;28;20502;-89
2023/05/20 05:17:43;;;;;;;5.32;2.50;;;14.60;51.00;;;;;;5030802;28;20100;-89
2023/05/20 05:20:11;;;;;;;2.60;2.00;;;14.60;51.10;;;;;;5038964;28;20069;-86
2023/05/20 05:22:40;;;;;;;3.80;2.30;;;14.60;51.30;;;;;;5032558;28;20085;-91
2023/05/20 05:25:10;;;;;;;3.42;2.20;;;14.70;51.50;;;;;;5029441;28;20064;-90
2023/05/20 05:27:38;;;;;;;6.00;2.17;;;14.60;51.50;;;;;;5040071;28;20057;-90
2023/05/20 05:30:07;;;;;;;5.00;2.72;;;14.70;51.40;;;;;;5031156;28;20413;-90
2023/05/20 05:32:37;;;;;;;4.47;2.47;;;14.70;51.50;;;;;;5026326;28;20056;-91
2023/05/20 05:35:05;;;;;;;6.45;2.25;;;14.70;51.40;;;;;;5032159;28;20064;-90
2023/05/20 05:37:33;;;;;;;3.55;2.00;;;14.70;51.50;;;;;;5026411;28;20071;-92
2023/05/20 05:40:00;;;;;;;5.53;2.60;;;14.70;51.40;;;;;;5032254;28;20448;-91
2023/05/20 05:42:29;;;;;;;6.28;2.50;;;14.80;51.60;;;;;;5026433;28;20502;-91
2023/05/20 05:44:57;;;;;;;3.92;2.22;;;14.80;51.70;;;;;;5018974;28;20049;-90
2023/05/20 05:47:28;;;;;;;4.90;2.40;;;14.80;51.50;;;;;;5014969;28;20056;-90
2023/05/20 05:49:55;;;;;;;3.65;2.40;;;14.90;51.50;;;;;;5035902;28;20644;-89
2023/05/20 05:58:22;;;;;;;2.92;2.17;;;15.00;51.40;;;;;;5025447;28;20064;-93
2023/05/20 06:00:53;;;;;;;3.67;2.33;;;15.10;51.40;;;;;;5027339;28;20041;-91
2023/05/20 06:03:31;;;;;;;4.53;2.30;;;15.20;51.40;;;;;;5037739;28;20048;-94
2023/05/20 06:06:09;;;;;;;3.90;2.33;;;15.30;51.50;;;;;;5038283;28;20057;-92
2023/05/20 06:08:39;;;;;;;3.95;2.40;;;15.30;51.10;;;;;;5032724;28;20091;-92
2023/05/20 06:11:07;;;;;;;3.67;2.00;;;15.40;51.50;;;;;;5037120;28;20420;-92
2023/05/20 06:13:50;;;;;;;4.03;2.50;;;15.50;51.60;;;;;;5032638;28;20076;-91
2023/05/20 06:16:21;;;;;;;4.20;2.30;;;15.50;51.70;;;;;;5034374;28;20056;-92
2023/05/20 06:18:50;;;;;;;5.15;2.30;;;15.60;51.40;;;;;;5029585;28;20049;-91
2023/05/20 06:21:19;;;;;;;5.65;3.15;;;15.60;51.50;;;;;;5024748;28;20057;-92
2023/05/20 06:27:01;;;;;;;4.20;2.05;;;15.80;51.40;;;;;;4987258;28;20057;-92
2023/05/20 06:29:31;;;;;;;5.20;2.50;;;15.80;51.20;;;;;;5034106;28;20072;-88
2023/05/20 06:32:09;;;;;;;2.35;2.08;;;16.00;51.30;;;;;;5037352;28;20064;-92
2023/05/20 06:34:37;;;;;;;3.25;2.22;;;16.00;51.20;;;;;;5034454;28;20064;-92
2023/05/20 06:37:26;;;;;;;4.22;2.58;;;16.10;50.90;;;;;;5034842;28;20065;-93
2023/05/20 06:40:04;;;;;;;5.82;2.25;;;16.20;50.90;;;;;;5031733;28;20045;-94
2023/05/20 06:42:37;;;;;;;3.70;2.10;;;16.20;50.80;;;;;;5032166;28;20914;-92
2023/05/20 06:45:24;;;;;;;4.00;2.57;;;16.30;50.80;;;;;;5033942;28;20114;-92
2023/05/20 06:47:59;;;;;;;2.97;2.35;;;16.40;51.30;;;;;;5029253;28;20049;-92
2023/05/20 06:50:33;;;;;;;3.72;2.33;;;16.50;50.60;;;;;;5034213;28;20417;-92
2023/05/20 06:53:18;;;;;;;3.10;2.35;;;16.50;50.60;;;;;;5016539;28;20049;-94
2023/05/20 06:55:51;;;;;;;3.88;2.22;;;16.60;50.80;;;;;;5032557;28;20061;-93
2023/05/20 06:58:35;;;;;;;4.60;2.35;;;16.70;50.60;;;;;;5032305;28;20056;-93
2023/05/20 07:01:07;;;;;;;4.20;2.40;;;16.70;50.50;;;;;;5031543;28;20516;-92
2023/05/20 07:03:39;;;;;;;3.38;2.30;;;16.80;50.50;;;;;;5034956;28;20057;-93
2023/05/20 07:06:23;;;;;;;3.90;2.30;;;16.90;50.40;;;;;;5034326;28;20033;-92
2023/05/20 07:08:51;;;;;;;5.00;2.65;;;17.00;50.30;;;;;;5039336;23;20051;-45
2023/05/20 07:11:20;;;;;;;3.83;2.22;;;17.00;50.20;;;;;;4966356;28;20455;-45
2023/05/20 07:13:47;;;;;;;4.03;2.13;;;17.10;50.20;;;;;;4968435;28;20050;-43
2023/05/20 07:16:16;;;;;;;4.72;2.38;;;17.20;50.30;;;;;;4966290;28;20054;-45
2023/05/20 07:18:44;;;;;;;6.90;2.53;;;17.20;50.30;;;;;;4968605;28;20522;-44
2023/05/20 07:21:11;;;;;;;3.58;2.40;;;17.30;50.20;;;;;;4968547;28;20055;-43
2023/05/20 07:23:38;;;;;;;4.10;2.50;;;17.40;50.00;;;;;;4967621;28;20058;-43
2023/05/20 07:26:06;;;;;;;4.88;2.55;;;17.40;49.80;;;;;;4968227;28;20058;-45
2023/05/20 07:28:34;;;;;;;4.10;2.85;;;17.50;49.80;;;;;;4969139;28;20046;-45
2023/05/20 07:31:02;;;;;;;4.05;2.40;;;17.60;49.70;;;;;;4968186;28;20069;-43
2023/05/20 07:33:31;;;;;;;5.60;2.80;;;17.70;49.70;;;;;;4968309;28;20058;-46
2023/05/20 07:35:58;;;;;;;3.67;2.20;;;17.70;49.80;;;;;;4967887;28;20586;-44
2023/05/20 07:38:26;;;;;;;3.25;2.38;;;17.80;50.10;;;;;;4968335;28;20078;-45
2023/05/20 07:40:53;;;;;;;3.40;2.30;;;17.90;49.30;;;;;;4967920;28;20054;-43
2023/05/20 07:43:20;;;;;;;5.68;2.58;;;17.90;49.30;;;;;;4968093;28;20502;-45
2023/05/20 07:45:47;;;;;;;3.90;2.33;;;18.00;49.30;;;;;;4966107;28;20131;-46
2023/05/20 07:48:15;;;;;;;4.18;2.92;;;18.00;49.20;;;;;;4967847;28;20089;-45
2023/05/20 07:50:44;;;;;;;6.05;2.95;;;18.10;49.10;;;;;;4967082;28;20055;-45
2023/05/20 07:53:11;;;;;;;4.22;2.50;;;18.10;49.00;;;;;;4966939;28;20062;-46
2023/05/20 07:55:39;;;;;;;3.40;2.35;;;18.20;49.00;;;;;;4967146;28;20058;-43
2023/05/20 07:58:06;;;;;;;4.30;2.63;;;18.20;49.00;;;;;;4967464;28;20054;-45
2023/05/20 08:00:33;;;;;;;6.38;2.40;;;18.30;49.10;;;;;;4966464;28;20054;-45
2023/05/20 08:03:00;;;;;;;4.28;2.60;;;18.40;49.50;;;;;;4966821;28;20054;-43
2023/05/20 08:05:28;;;;;;;6.15;2.53;;;18.40;49.30;;;;;;4966708;28;20055;-45
2023/05/20 08:07:57;;;;;;;4.85;2.83;;;18.50;49.30;;;;;;4968559;28;20073;-43
2023/05/20 08:10:24;;;;;;;6.47;3.20;;;18.50;49.20;;;;;;4970219;28;20418;-43
2023/05/20 08:12:51;;;;;;;3.60;3.03;;;18.60;49.40;;;;;;4965231;28;20069;-43
2023/05/20 08:15:18;;;;;;;4.28;2.85;;;18.60;49.40;;;;;;4966450;28;20502;-45
2023/05/20 08:17:46;;;;;;;5.22;2.90;;;18.70;49.60;;;;;;4968271;28;22199;-45
2023/05/20 08:20:13;;;;;;;4.85;2.63;;;18.80;49.60;;;;;;4967707;28;20414;-45
2023/05/20 08:22:40;;;;;;;4.90;2.67;;;18.80;49.70;;;;;;4966547;28;20054;-45
2023/05/20 08:25:10;;;;;;;12.23;2.53;;;18.90;49.60;;;;;;4966345;28;20059;-43
2023/05/20 08:27:37;;;;;;;4.05;2.90;;;19.00;49.40;;;;;;4966888;28;20060;-43
2023/05/20 08:30:07;;;;;;;3.75;2.50;;;19.10;49.30;;;;;;4968191;28;20410;-43
2023/05/20 08:32:34;;;;;;;4.07;2.63;;;19.30;49.20;;;;;;4964977;28;20054;-43
2023/05/20 08:35:01;;;;;;;5.03;3.30;;;19.30;49.10;;;;;;4966889;28;20270;-45
2023/05/20 08:37:28;;;;;;;3.60;2.78;;;19.40;48.70;;;;;;4966755;28;20054;-43
2023/05/20 08:39:55;;;;;;;8.88;2.70;;;19.50;48.40;;;;;;4966597;28;20054;-44
2023/05/20 08:42:25;;;;;;;4.10;2.50;;;19.60;48.10;;;;;;4966741;28;20581;-45
2023/05/20 08:44:53;;;;;;;4.55;2.85;;;19.60;48.00;;;;;;4966573;28;20051;-43
2023/05/20 08:47:21;;;;;;;5.72;2.75;;;19.70;48.00;;;;;;4966653;28;20054;-45
2023/05/20 08:49:48;;;;;;;4.70;2.63;;;19.80;47.90;;;;;;4966817;28;20059;-45
2023/05/20 08:52:18;;;;;;;4.63;2.88;;;19.80;47.80;;;;;;4966989;28;20647;-43
2023/05/20 08:54:48;;;;;;;3.65;2.47;;;19.90;48.30;;;;;;4968292;28;20061;-48
2023/05/20 08:57:15;;;;;;;3.92;2.63;;;20.00;47.30;;;;;;4968555;28;20502;-44
2023/05/20 08:59:45;;;;;;;4.88;2.85;;;20.00;47.00;;;;;;4967734;28;20418;-43
2023/05/20 09:02:13;;;;;;;4.00;2.78;;;20.00;46.90;;;;;;4965405;28;20047;-45
2023/05/20 09:04:40;;;;;;;4.65;2.90;;;20.10;46.80;;;;;;4966640;28;20494;-44
2023/05/20 09:07:07;;;;;;;3.85;2.75;;;20.10;46.70;;;;;;4966302;28;20058;-43
2023/05/20 09:09:35;;;;;;;3.80;2.58;;;20.20;46.50;;;;;;4965794;28;20164;-44
2023/05/20 09:12:03;;;;;;;4.03;2.67;;;20.20;46.50;;;;;;4965548;28;20070;-43
2023/05/20 09:14:31;;;;;;;5.15;2.50;;;20.20;46.60;;;;;;4967221;28;20513;-43
2023/05/20 09:16:59;;;;;;;3.67;2.15;;;20.30;46.50;;;;;;4964606;28;20050;-45
2023/05/20 09:19:27;;;;;;;4.50;2.78;;;20.30;46.50;;;;;;4966300;28;20051;-44
2023/05/20 09:21:55;;;;;;;4.60;2.53;;;20.40;46.70;;;;;;4966665;28;20057;-43
2023/05/20 09:24:26;;;;;;;3.70;2.75;;;20.50;46.60;;;;;;4965944;28;20054;-44
2023/05/20 09:26:53;;;;;;;3.88;2.90;;;20.50;46.40;;;;;;4966121;28;20407;-43
2023/05/20 09:29:20;;;;;;;6.22;2.72;;;20.60;46.20;;;;;;4965454;28;20411;-43
2023/05/20 09:31:48;;;;;;;3.70;2.47;;;20.60;46.10;;;;;;4965690;28;20123;-45
2023/05/20 09:34:17;;;;;;;4.13;2.35;;;20.70;46.10;;;;;;4964860;28;20084;-43
2023/05/20 09:36:45;;;;;;;7.30;2.83;;;20.70;46.20;;;;;;4965536;28;20498;-44
2023/05/20 09:39:15;;;;;;;4.65;2.70;;;20.80;45.90;;;;;;4965842;28;21470;-43
2023/05/20 09:41:53;;;;;;;4.68;3.10;;;20.80;45.70;;;;;;4965755;28;20502;-46
2023/05/20 09:44:21;;;;;;;9.98;2.88;;;20.80;45.40;;;;;;4966991;28;20065;-43
2023/05/20 09:46:51;;;;;;;5.88;3.70;;;20.90;45.50;;;;;;4964610;28;20077;-44
2023/05/20 09:49:21;;;;;;;5.28;3.10;;;20.90;45.40;;;;;;4965785;28;20056;-44
2023/05/20 09:51:49;;;;;;;4.53;2.85;;;21.00;45.40;;;;;;4965878;28;20046;-43
2023/05/20 09:54:19;;;;;;;6.25;3.40;;;21.00;45.50;;;;;;4965123;28;20058;-47
2023/05/20 09:56:47;;;;;;;4.32;3.17;;;21.00;45.30;;;;;;4966471;28;20051;-44
2023/05/20 09:59:15;;;;;;;4.45;2.88;;;21.10;45.40;;;;;;4964959;28;20050;-42
2023/05/20 10:01:43;;;;;;;5.38;3.15;;;21.10;45.30;;;;;;4964327;28;20063;-43
2023/05/20 10:04:13;;;;;;;5.70;3.42;;;21.10;45.10;;;;;;4965394;28;20055;-44
2023/05/20 10:06:59;;;;;;;5.78;3.38;;;21.20;44.90;;;;;;4965523;28;20593;-44
2023/05/20 10:09:42;;;;;;;5.72;3.70;;;21.20;44.60;;;;;;4964912;28;20073;-43
2023/05/20 10:12:20;;;;;;;4.07;3.17;;;21.20;44.70;;;;;;4964777;28;20081;-43
2023/05/20 10:14:56;;;;;;;4.93;2.97;;;21.20;44.80;;;;;;4964908;28;20061;-45
2023/05/20 10:17:29;;;;;;;7.57;3.38;;;21.30;44.90;;;;;;4962725;28;20055;-43
2023/05/20 10:20:00;;;;;;;5.43;3.25;;;21.30;45.50;;;;;;4965164;28;20054;-44
2023/05/20 10:22:30;;;;;;;3.75;3.22;;;21.40;45.00;;;;;;4965062;28;20478;-43
2023/05/20 10:25:05;;;;;;;3.72;3.33;;;21.40;44.90;;;;;;4965723;28;20082;-44
2023/05/20 10:27:43;;;;;;;5.93;3.60;;;21.50;45.00;;;;;;4965145;28;20054;-46
2023/05/20 10:30:16;;;;;;;5.47;2.85;;;21.60;45.00;;;;;;4963572;28;20058;-43
2023/05/20 10:32:51;;;;;;;7.22;3.13;;;21.60;45.00;;;;;;4964869;28;20057;-44
2023/05/20 10:35:25;;;;;;;6.47;3.63;;;21.70;44.80;;;;;;4964882;28;20059;-45
2023/05/20 10:37:54;;;;;;;4.63;3.22;;;21.70;45.00;;;;;;4966409;28;20054;-44
2023/05/20 10:40:22;;;;;;;10.05;3.58;;;21.80;45.00;;;;;;4964674;28;20059;-44
2023/05/20 10:42:49;;;;;;;5.50;3.17;;;21.80;44.80;;;;;;4965187;28;20075;-43
2023/05/20 10:45:27;;;;;;;9.70;3.15;;;21.90;44.90;;;;;;4962020;28;20073;-43
2023/05/20 10:47:56;;;;;;;4.90;3.35;;;21.90;44.80;;;;;;4964357;28;20050;-44
2023/05/20 10:50:28;;;;;;;4.15;3.30;;;22.00;44.80;;;;;;4966021;28;20070;-44
2023/05/20 10:53:04;;;;;;;5.00;3.40;;;22.10;44.50;;;;;;4965465;28;20050;-42
2023/05/20 10:55:36;;;;;;;5.18;3.88;;;22.10;44.00;;;;;;4964514;28;20054;-41
2023/05/20 10:58:04;;;;;;;5.82;3.90;;;22.10;43.90;;;;;;4963611;28;20392;-43
2023/05/20 11:00:32;;;;;;;5.45;3.70;;;22.10;43.70;;;;;;4964250;28;20440;-41
2023/05/20 11:03:00;;;;;;;5.07;3.80;;;22.00;43.50;;;;;;4963897;28;20491;-41
2023/05/20 11:05:30;;;;;;;5.32;3.63;;;22.10;43.80;;;;;;4964903;28;20062;-42
2023/05/20 11:08:03;;;;;;;4.18;3.50;;;22.00;43.50;;;;;;4964848;28;20051;-42
2023/05/20 11:10:30;;;;;;;3.60;3.10;;;22.00;43.70;;;;;;4964350;28;20418;-43
2023/05/20 11:12:58;;;;;;;4.90;3.15;;;22.00;43.80;;;;;;4964910;28;20591;-42
2023/05/20 11:15:25;;;;;;;5.20;3.88;;;21.90;43.80;;;;;;4963559;28;20423;-41
2023/05/20 11:17:54;;;;;;;5.60;3.60;;;22.00;43.60;;;;;;4963938;28;20047;-41
2023/05/20 11:20:21;;;;;;;5.10;3.60;;;21.90;43.80;;;;;;4964238;28;20054;-42
2023/05/20 11:22:50;;;;;;;6.15;3.78;;;21.90;44.00;;;;;;4964371;28;20054;-43
2023/05/20 11:25:19;;;;;;;4.57;3.60;;;22.00;44.10;;;;;;4963635;28;20051;-41
2023/05/20 11:27:46;;;;;;;5.45;3.58;;;22.00;44.10;;;;;;4964113;28;20061;-41
2023/05/20 11:30:15;;;;;;;5.93;3.88;;;22.00;43.80;;;;;;4963144;28;20063;-41
2023/05/20 11:32:43;;;;;;;5.18;3.80;;;22.10;43.80;;;;;;4964157;28;20075;-44
2023/05/20 11:35:22;;;;;;;5.35;3.60;;;22.10;43.80;;;;;;4965349;28;20407;-47
2023/05/20 11:37:56;;;;;;;5.15;3.55;;;22.10;43.80;;;;;;4966509;28;20081;-42
2023/05/20 11:40:28;;;;;;;8.07;4.10;;;22.20;44.00;;;;;;4965893;28;20495;-41
2023/05/20 11:42:56;;;;;;;5.63;3.80;;;22.20;43.80;;;;;;4965974;28;20054;-46
2023/05/20 11:45:23;;;;;;;4.28;3.33;;;22.30;44.00;;;;;;4963837;28;20050;-44
2023/05/20 11:48:01;;;;;;;4.40;3.38;;;22.30;43.90;;;;;;4965257;28;20051;-44
2023/05/20 11:50:29;;;;;;;6.50;3.90;;;22.40;43.80;;;;;;4964473;28;20487;-43
2023/05/20 11:52:58;;;;;;;5.85;3.15;;;22.50;44.00;;;;;;4964082;28;20392;-43
2023/05/20 11:55:27;;;;;;;5.93;3.40;;;22.50;44.00;;;;;;4963934;28;20070;-42
2023/05/20 11:57:55;;;;;;;5.20;3.47;;;22.60;43.50;;;;;;4965736;28;20058;-41
2023/05/20 12:00:23;;;;;;;4.97;3.55;;;22.60;43.40;;;;;;4966905;28;20054;-41
2023/05/20 12:02:50;;;;;;;5.05;3.50;;;22.60;43.10;;;;;;4966914;28;20058;-42
2023/05/20 12:05:18;;;;;;;5.32;3.58;;;22.60;43.00;;;;;;4968202;28;20058;-42
2023/05/20 12:07:45;;;;;;;5.28;3.95;;;22.70;43.30;;;;;;4967473;28;20593;-43
2023/05/20 12:10:13;;;;;;;6.18;3.50;;;22.70;43.30;;;;;;4967175;28;20070;-41
2023/05/20 12:12:44;;;;;;;7.93;4.00;;;22.70;43.00;;;;;;4967525;28;20050;-42
2023/05/20 12:15:11;;;;;;;5.85;3.78;;;22.60;43.00;;;;;;4965868;28;20055;-44
2023/05/20 12:17:47;;;;;;;4.80;3.28;;;22.60;43.20;;;;;;4966679;28;20060;-45
2023/05/20 12:20:16;;;;;;;6.05;3.55;;;22.70;43.10;;;;;;4968685;28;20069;-41
2023/05/20 12:22:44;;;;;;;4.82;3.47;;;22.70;43.30;;;;;;4967183;28;20058;-41
2023/05/20 12:25:14;;;;;;;5.25;3.80;;;22.70;43.30;;;;;;4966649;28;20059;-42
2023/05/20 12:27:46;;;;;;;5.18;3.60;;;22.70;43.10;;;;;;4966819;28;20054;-42
2023/05/20 12:33:36;;;;;;;5.05;3.30;;;22.80;42.80;;;;;;4967096;28;20046;-41
2023/05/20 12:36:03;;;;;;;4.45;3.10;;;22.80;42.90;;;;;;4966827;28;20417;-41
2023/05/20 12:38:30;;;;;;;5.30;3.10;;;22.80;42.70;;;;;;4967743;28;20415;-41
2023/05/20 12:40:57;;;;;;;8.38;4.05;;;22.70;42.70;;;;;;4965993;28;20062;-41
2023/05/20 12:43:26;;;;;;;4.03;3.47;;;22.70;42.80;;;;;;4966323;28;20051;-41
2023/05/20 12:45:53;;;;;;;5.90;3.75;;;22.70;42.80;;;;;;4964769;28;20062;-44
2023/05/20 12:48:21;;;;;;;5.45;3.72;;;22.70;42.80;;;;;;4967014;28;20058;-43
2023/05/20 12:50:48;;;;;;;5.45;3.88;;;22.70;42.80;;;;;;4966709;28;20074;-42
2023/05/20 12:53:15;;;;;;;3.70;3.15;;;22.70;43.10;;;;;;4966401;28;20510;-44
2023/05/20 12:55:43;;;;;;;5.43;3.70;;;22.70;43.00;;;;;;4968496;28;20057;-42
2023/05/20 12:58:10;;;;;;;4.80;3.65;;;22.70;43.20;;;;;;4966392;28;20053;-41
2023/05/20 13:00:38;;;;;;;5.25;3.70;;;22.70;43.10;;;;;;4965230;28;20058;-42
2023/05/20 13:03:06;;;;;;;4.10;3.30;;;22.80;42.80;;;;;;4966011;28;20051;-43
2023/05/20 13:05:33;;;;;;;5.13;3.60;;;22.80;42.80;;;;;;4965976;28;20058;-41
2023/05/20 13:08:00;;;;;;;5.32;3.65;;;22.80;42.70;;;;;;4966653;28;20521;-41